createdAt,value
2023-03-23T15:59:39.755Z,12.22
2023-03-23T16:02:06.980Z,12.11
2023-03-23T16:04:33.844Z,12.01
2023-03-23T16:07:01.141Z,11.80
2023-03-23T16:09:27.921Z,11.72
2023-03-23T16:11:54.615Z,11.57
2023-03-23T16:14:21.398Z,11.38
2023-03-23T16:16:53.114Z,11.37
2023-03-23T16:19:24.423Z,11.13
2023-03-23T16:21:51.470Z,10.98
2023-03-23T16:24:18.320Z,11.20
2023-03-23T16:26:45.040Z,11.42
2023-03-23T16:29:28.394Z,11.77
2023-03-23T16:32:01.111Z,11.88
2023-03-23T16:34:30.160Z,11.95
2023-03-23T16:36:56.911Z,12.03
2023-03-23T16:39:23.819Z,11.89
2023-03-23T16:41:50.733Z,11.88
2023-03-23T16:44:17.698Z,11.89
2023-03-23T16:46:44.518Z,11.93
2023-03-23T16:49:11.335Z,11.86
2023-03-23T16:51:38.089Z,11.89
2023-03-23T16:54:04.834Z,11.89
2023-03-23T16:56:31.631Z,11.92
2023-03-23T16:58:58.431Z,11.85
2023-03-23T17:01:25.214Z,11.95
2023-03-23T17:03:52.149Z,11.79
2023-03-23T17:06:18.935Z,11.66
2023-03-23T17:08:45.693Z,11.72
2023-03-23T17:11:12.458Z,11.61
2023-03-23T17:13:39.205Z,11.58
2023-03-23T17:16:06.530Z,11.59
2023-03-23T17:18:33.266Z,11.56
2023-03-23T17:21:00.008Z,11.54
2023-03-23T17:23:26.954Z,11.57
2023-03-23T17:25:54.266Z,11.51
2023-03-23T17:28:21.197Z,11.60
2023-03-23T17:30:48.607Z,11.52
2023-03-23T17:33:15.498Z,11.43
2023-03-23T17:35:43.389Z,11.32
2023-03-23T17:38:10.387Z,11.10
2023-03-23T17:40:37.162Z,10.84
2023-03-23T17:43:04.274Z,10.64
2023-03-23T17:45:31.066Z,10.54
2023-03-23T17:47:57.952Z,10.40
2023-03-23T17:50:24.774Z,10.29
2023-03-23T17:52:51.542Z,10.22
2023-03-23T17:55:18.707Z,10.18
2023-03-23T17:57:46.071Z,10.26
2023-03-23T18:00:13.433Z,10.03
2023-03-23T18:02:40.459Z,9.87
2023-03-23T18:05:09.390Z,9.62
2023-03-23T18:07:37.046Z,9.44
2023-03-23T18:10:11.619Z,9.21
2023-03-23T18:12:40.348Z,9.06
2023-03-23T18:15:08.128Z,9.08
2023-03-23T18:17:35.304Z,8.97
2023-03-23T18:20:03.409Z,8.98
2023-03-23T18:22:30.159Z,9.02
2023-03-23T18:24:58.474Z,9.07
2023-03-23T18:27:26.304Z,9.14
2023-03-23T18:29:53.125Z,9.02
2023-03-23T18:32:20.791Z,9.09
2023-03-23T18:34:47.667Z,9.12
2023-03-23T18:37:14.719Z,9.16
2023-03-23T18:39:41.841Z,9.13
2023-03-23T18:42:08.840Z,9.00
2023-03-23T18:44:35.632Z,8.81
2023-03-23T18:47:03.223Z,8.79
2023-03-23T18:49:30.493Z,8.64
2023-03-23T18:51:57.259Z,8.56
2023-03-23T18:54:24.093Z,8.54
2023-03-23T18:56:50.928Z,8.59
2023-03-23T18:59:17.795Z,8.57
2023-03-23T19:01:44.742Z,8.57
2023-03-23T19:04:13.663Z,8.58
2023-03-23T19:06:40.684Z,8.59
2023-03-23T19:09:07.463Z,8.65
2023-03-23T19:11:34.233Z,8.59
2023-03-23T19:14:03.548Z,8.56
2023-03-23T19:16:36.084Z,8.63
2023-03-23T19:19:04.894Z,8.59
2023-03-23T19:21:32.633Z,8.54
2023-03-23T19:24:01.354Z,8.58
2023-03-23T19:26:38.480Z,8.52
2023-03-23T19:31:45.738Z,8.55
2023-03-23T19:34:14.045Z,8.51
2023-03-23T19:36:41.143Z,8.56
2023-03-23T19:39:08.907Z,8.57
2023-03-23T19:41:35.750Z,8.52
2023-03-23T19:44:04.179Z,8.54
2023-03-23T19:46:31.659Z,8.57
2023-03-23T19:48:59.175Z,8.61
2023-03-23T19:51:27.589Z,8.61
2023-03-23T19:53:57.218Z,8.51
2023-03-23T19:56:24.643Z,8.51
2023-03-23T19:58:52.099Z,8.52
2023-03-23T20:01:19.260Z,8.37
2023-03-23T20:03:46.665Z,8.23
2023-03-23T20:06:15.415Z,8.09
2023-03-23T20:08:47.741Z,8.09
2023-03-23T20:11:17.899Z,8.15
2023-03-23T20:13:46.045Z,8.17
2023-03-23T20:16:12.842Z,8.20
2023-03-23T20:18:40.569Z,8.27
2023-03-23T20:21:10.353Z,8.21
2023-03-23T20:23:39.068Z,8.22
2023-03-23T20:26:15.751Z,8.24
2023-03-23T20:28:43.112Z,8.13
2023-03-23T20:31:19.822Z,8.00
2023-03-23T20:34:00.537Z,7.86
2023-03-23T20:36:37.124Z,7.81
2023-03-23T20:39:10.709Z,7.64
2023-03-23T20:41:38.906Z,7.59
2023-03-23T20:44:07.630Z,7.60
2023-03-23T20:46:34.890Z,7.57
2023-03-23T20:49:01.852Z,7.44
2023-03-23T20:51:28.681Z,7.43
2023-03-23T20:53:55.804Z,7.39
2023-03-23T20:56:22.571Z,7.42
2023-03-23T20:58:49.345Z,7.51
2023-03-23T21:01:16.438Z,7.59
2023-03-23T21:03:44.061Z,7.72
2023-03-23T21:06:12.009Z,7.72
2023-03-23T21:08:40.916Z,7.85
2023-03-23T21:11:09.961Z,7.84
2023-03-23T21:13:36.894Z,7.86
2023-03-23T21:16:04.363Z,7.81
2023-03-23T21:18:32.245Z,7.80
2023-03-23T21:21:00.486Z,7.78
2023-03-23T21:23:29.778Z,7.78
2023-03-23T21:26:08.295Z,7.76
2023-03-23T21:28:35.066Z,7.66
2023-03-23T21:31:03.764Z,7.59
2023-03-23T21:33:31.219Z,7.58
2023-03-23T21:35:58.167Z,7.47
2023-03-23T21:38:28.022Z,7.42
2023-03-23T21:40:56.301Z,7.45
2023-03-23T21:43:27.579Z,7.37
2023-03-23T21:45:59.041Z,7.32
2023-03-23T21:48:29.763Z,7.30
2023-03-23T21:50:56.838Z,7.24
2023-03-23T21:53:25.588Z,7.21
2023-03-23T21:55:52.826Z,7.33
2023-03-23T21:58:22.058Z,7.30
2023-03-23T22:00:54.098Z,7.34
2023-03-23T22:03:25.030Z,7.38
2023-03-23T22:05:56.886Z,7.27
2023-03-23T22:08:26.273Z,7.31
2023-03-23T22:11:00.341Z,7.36
2023-03-23T22:13:30.536Z,7.48
2023-03-23T22:15:58.941Z,7.54
2023-03-23T22:18:26.084Z,7.62
2023-03-23T22:20:53.402Z,7.80
2023-03-23T22:23:20.394Z,7.83
2023-03-23T22:25:47.654Z,7.95
2023-03-23T22:28:14.424Z,8.06
2023-03-23T22:30:41.290Z,8.11
2023-03-23T22:33:08.233Z,8.13
2023-03-23T22:35:35.279Z,8.15
2023-03-23T22:38:03.382Z,8.11
2023-03-23T22:40:32.877Z,8.13
2023-03-23T22:42:59.633Z,8.16
2023-03-23T22:45:27.984Z,8.09
2023-03-23T22:47:57.744Z,8.02
2023-03-23T22:50:24.648Z,8.08
2023-03-23T22:52:51.418Z,8.08
2023-03-23T22:55:18.326Z,8.28
2023-03-23T22:57:45.524Z,8.16
2023-03-23T23:00:16.048Z,8.16
2023-03-23T23:02:43.517Z,8.18
2023-03-23T23:05:11.302Z,8.13
2023-03-23T23:07:38.642Z,8.24
2023-03-23T23:10:06.200Z,8.20
2023-03-23T23:12:35.253Z,8.12
2023-03-23T23:15:07.122Z,8.31
2023-03-23T23:17:34.885Z,8.22
2023-03-23T23:20:05.656Z,8.13
2023-03-23T23:22:33.462Z,8.26
2023-03-23T23:25:00.748Z,8.24
2023-03-23T23:27:27.540Z,8.27
2023-03-23T23:29:54.346Z,8.26
2023-03-23T23:32:21.177Z,8.36
2023-03-23T23:34:48.566Z,8.33
2023-03-23T23:37:15.517Z,8.35
2023-03-23T23:39:42.631Z,8.29
2023-03-23T23:42:09.536Z,8.35
2023-03-23T23:44:36.480Z,8.37
2023-03-23T23:47:03.341Z,8.34
2023-03-23T23:49:31.871Z,8.42
2023-03-23T23:51:58.917Z,8.44
2023-03-23T23:54:30.326Z,8.57
2023-03-23T23:57:01.532Z,8.61
2023-03-23T23:59:29.220Z,8.66
